sensor_id;sensor_type;location;lat;lon;timestamp;P1;durP1;ratioP1;P2;durP2;ratioP2
3563;SDS011;1796;52.388;13.096;2022-12-18T00:01:22;40.67;;;14.90;;
3563;SDS011;1796;52.388;13.096;2022-12-18T00:03:52;50.13;;;16.43;;
3563;SDS011;1796;52.388;13.096;2022-12-18T00:06:20;38.60;;;14.60;;
3563;SDS011;1796;52.388;13.096;2022-12-18T00:08:47;38.40;;;15.67;;
3563;SDS011;1796;52.388;13.096;2022-12-18T00:11:15;40.77;;;15.37;;
3563;SDS011;1796;52.388;13.096;2022-12-18T00:13:44;44.53;;;16.60;;
3563;SDS011;1796;52.388;13.096;2022-12-18T00:16:12;37.30;;;14.67;;
3563;SDS011;1796;52.388;13.096;2022-12-18T00:18:41;41.47;;;16.73;;
3563;SDS011;1796;52.388;13.096;2022-12-18T00:21:10;43.37;;;15.97;;
3563;SDS011;1796;52.388;13.096;2022-12-18T00:23:39;48.50;;;15.80;;
3563;SDS011;1796;52.388;13.096;2022-12-18T00:26:08;45.80;;;16.50;;
3563;SDS011;1796;52.388;13.096;2022-12-18T00:28:43;45.67;;;15.60;;
3563;SDS011;1796;52.388;13.096;2022-12-18T00:31:12;42.60;;;16.00;;
3563;SDS011;1796;52.388;13.096;2022-12-18T00:33:40;41.00;;;15.93;;
3563;SDS011;1796;52.388;13.096;2022-12-18T00:36:10;42.83;;;15.43;;
3563;SDS011;1796;52.388;13.096;2022-12-18T00:38:39;45.47;;;15.70;;
3563;SDS011;1796;52.388;13.096;2022-12-18T00:41:07;42.37;;;14.97;;
3563;SDS011;1796;52.388;13.096;2022-12-18T00:43:35;45.83;;;16.17;;
3563;SDS011;1796;52.388;13.096;2022-12-18T00:46:01;41.93;;;16.20;;
3563;SDS011;1796;52.388;13.096;2022-12-18T00:48:29;45.30;;;16.43;;
3563;SDS011;1796;52.388;13.096;2022-12-18T00:50:56;46.20;;;15.50;;
3563;SDS011;1796;52.388;13.096;2022-12-18T00:53:24;51.77;;;17.87;;
3563;SDS011;1796;52.388;13.096;2022-12-18T00:55:51;53.73;;;15.23;;
3563;SDS011;1796;52.388;13.096;2022-12-18T00:58:23;56.50;;;16.37;;
3563;SDS011;1796;52.388;13.096;2022-12-18T01:00:50;45.70;;;15.03;;
3563;SDS011;1796;52.388;13.096;2022-12-18T01:03:17;44.57;;;15.30;;
3563;SDS011;1796;52.388;13.096;2022-12-18T01:05:44;45.07;;;13.83;;
3563;SDS011;1796;52.388;13.096;2022-12-18T01:08:11;47.07;;;15.60;;
3563;SDS011;1796;52.388;13.096;2022-12-18T01:10:40;44.20;;;16.63;;
3563;SDS011;1796;52.388;13.096;2022-12-18T01:13:07;42.20;;;15.53;;
3563;SDS011;1796;52.388;13.096;2022-12-18T01:15:35;42.13;;;14.57;;
3563;SDS011;1796;52.388;13.096;2022-12-18T01:18:04;49.70;;;16.97;;
3563;SDS011;1796;52.388;13.096;2022-12-18T01:20:32;46.10;;;17.07;;
3563;SDS011;1796;52.388;13.096;2022-12-18T01:22:59;52.70;;;16.90;;
3563;SDS011;1796;52.388;13.096;2022-12-18T01:25:26;42.83;;;14.97;;
3563;SDS011;1796;52.388;13.096;2022-12-18T01:27:54;40.07;;;14.23;;
3563;SDS011;1796;52.388;13.096;2022-12-18T01:30:22;50.97;;;15.50;;
3563;SDS011;1796;52.388;13.096;2022-12-18T01:32:48;47.37;;;15.03;;
3563;SDS011;1796;52.388;13.096;2022-12-18T01:35:15;42.93;;;15.60;;
3563;SDS011;1796;52.388;13.096;2022-12-18T01:37:42;43.40;;;15.80;;
3563;SDS011;1796;52.388;13.096;2022-12-18T01:40:10;48.07;;;15.70;;
3563;SDS011;1796;52.388;13.096;2022-12-18T01:42:37;39.10;;;14.30;;
3563;SDS011;1796;52.388;13.096;2022-12-18T01:45:08;50.07;;;16.73;;
3563;SDS011;1796;52.388;13.096;2022-12-18T01:47:50;51.03;;;14.97;;
3563;SDS011;1796;52.388;13.096;2022-12-18T01:50:19;38.93;;;14.50;;
3563;SDS011;1796;52.388;13.096;2022-12-18T01:52:48;48.57;;;15.67;;
3563;SDS011;1796;52.388;13.096;2022-12-18T01:55:20;43.83;;;14.87;;
3563;SDS011;1796;52.388;13.096;2022-12-18T01:57:50;43.20;;;16.00;;
3563;SDS011;1796;52.388;13.096;2022-12-18T02:00:22;48.93;;;15.90;;
3563;SDS011;1796;52.388;13.096;2022-12-18T02:02:50;39.33;;;14.97;;
3563;SDS011;1796;52.388;13.096;2022-12-18T02:05:17;37.40;;;14.50;;
3563;SDS011;1796;52.388;13.096;2022-12-18T02:07:53;38.20;;;15.43;;
3563;SDS011;1796;52.388;13.096;2022-12-18T02:10:30;45.53;;;15.30;;
3563;SDS011;1796;52.388;13.096;2022-12-18T02:13:07;47.23;;;16.27;;
3563;SDS011;1796;52.388;13.096;2022-12-18T02:15:43;45.43;;;14.40;;
3563;SDS011;1796;52.388;13.096;2022-12-18T02:18:18;43.60;;;15.07;;
3563;SDS011;1796;52.388;13.096;2022-12-18T02:20:48;42.57;;;15.30;;
3563;SDS011;1796;52.388;13.096;2022-12-18T02:23:24;44.30;;;15.70;;
3563;SDS011;1796;52.388;13.096;2022-12-18T02:26:09;39.17;;;13.60;;
3563;SDS011;1796;52.388;13.096;2022-12-18T02:28:42;42.03;;;15.20;;
3563;SDS011;1796;52.388;13.096;2022-12-18T02:31:13;39.33;;;14.63;;
3563;SDS011;1796;52.388;13.096;2022-12-18T02:33:43;39.93;;;15.23;;
3563;SDS011;1796;52.388;13.096;2022-12-18T02:36:10;41.33;;;14.10;;
3563;SDS011;1796;52.388;13.096;2022-12-18T02:38:41;40.60;;;14.20;;
3563;SDS011;1796;52.388;13.096;2022-12-18T02:41:11;41.17;;;15.27;;
3563;SDS011;1796;52.388;13.096;2022-12-18T02:43:40;39.23;;;14.30;;
3563;SDS011;1796;52.388;13.096;2022-12-18T02:46:29;35.13;;;15.07;;
3563;SDS011;1796;52.388;13.096;2022-12-18T02:49:01;44.80;;;15.50;;
3563;SDS011;1796;52.388;13.096;2022-12-18T02:51:36;36.47;;;13.90;;
3563;SDS011;1796;52.388;13.096;2022-12-18T02:54:14;43.17;;;16.30;;
3563;SDS011;1796;52.388;13.096;2022-12-18T02:56:51;42.37;;;14.60;;
3563;SDS011;1796;52.388;13.096;2022-12-18T02:59:23;55.43;;;17.80;;
3563;SDS011;1796;52.388;13.096;2022-12-18T03:01:57;47.10;;;14.87;;
3563;SDS011;1796;52.388;13.096;2022-12-18T03:04:29;41.90;;;15.13;;
3563;SDS011;1796;52.388;13.096;2022-12-18T03:07:01;40.30;;;15.50;;
3563;SDS011;1796;52.388;13.096;2022-12-18T03:09:32;37.70;;;15.90;;
3563;SDS011;1796;52.388;13.096;2022-12-18T03:12:07;50.73;;;18.07;;
3563;SDS011;1796;52.388;13.096;2022-12-18T03:14:50;46.90;;;16.57;;
3563;SDS011;1796;52.388;13.096;2022-12-18T03:17:20;43.87;;;17.00;;
3563;SDS011;1796;52.388;13.096;2022-12-18T03:19:51;49.70;;;15.67;;
3563;SDS011;1796;52.388;13.096;2022-12-18T03:22:22;49.30;;;17.57;;
3563;SDS011;1796;52.388;13.096;2022-12-18T03:24:50;51.80;;;18.37;;
3563;SDS011;1796;52.388;13.096;2022-12-18T03:27:20;51.67;;;18.40;;
3563;SDS011;1796;52.388;13.096;2022-12-18T03:29:51;45.67;;;16.60;;
3563;SDS011;1796;52.388;13.096;2022-12-18T03:32:24;42.93;;;16.63;;
3563;SDS011;1796;52.388;13.096;2022-12-18T03:34:56;52.03;;;16.40;;
3563;SDS011;1796;52.388;13.096;2022-12-18T03:37:27;46.10;;;16.50;;
3563;SDS011;1796;52.388;13.096;2022-12-18T03:39:54;41.33;;;16.00;;
3563;SDS011;1796;52.388;13.096;2022-12-18T03:42:23;56.73;;;18.63;;
3563;SDS011;1796;52.388;13.096;2022-12-18T03:44:55;39.90;;;15.20;;
3563;SDS011;1796;52.388;13.096;2022-12-18T03:47:30;42.87;;;16.13;;
3563;SDS011;1796;52.388;13.096;2022-12-18T03:50:04;43.50;;;15.07;;
3563;SDS011;1796;52.388;13.096;2022-12-18T03:52:40;36.70;;;13.73;;
3563;SDS011;1796;52.388;13.096;2022-12-18T03:55:12;38.67;;;14.50;;
3563;SDS011;1796;52.388;13.096;2022-12-18T03:57:40;39.00;;;14.63;;
3563;SDS011;1796;52.388;13.096;2022-12-18T04:00:10;32.80;;;12.60;;
3563;SDS011;1796;52.388;13.096;2022-12-18T04:02:40;44.60;;;14.57;;
3563;SDS011;1796;52.388;13.096;2022-12-18T04:05:11;33.93;;;13.30;;
3563;SDS011;1796;52.388;13.096;2022-12-18T04:07:40;30.83;;;13.27;;
3563;SDS011;1796;52.388;13.096;2022-12-18T04:10:08;31.10;;;13.50;;
3563;SDS011;1796;52.388;13.096;2022-12-18T04:12:36;41.83;;;15.10;;
3563;SDS011;1796;52.388;13.096;2022-12-18T04:15:05;34.40;;;13.87;;
3563;SDS011;1796;52.388;13.096;2022-12-18T04:17:33;44.60;;;14.40;;
3563;SDS011;1796;52.388;13.096;2022-12-18T04:20:00;39.13;;;14.40;;
3563;SDS011;1796;52.388;13.096;2022-12-18T04:22:27;40.07;;;13.87;;
3563;SDS011;1796;52.388;13.096;2022-12-18T04:24:54;36.00;;;14.17;;
3563;SDS011;1796;52.388;13.096;2022-12-18T04:27:21;33.70;;;13.83;;
3563;SDS011;1796;52.388;13.096;2022-12-18T04:29:48;35.20;;;14.50;;
3563;SDS011;1796;52.388;13.096;2022-12-18T04:32:16;37.43;;;13.80;;
3563;SDS011;1796;52.388;13.096;2022-12-18T04:34:43;35.47;;;13.30;;
3563;SDS011;1796;52.388;13.096;2022-12-18T04:37:10;31.37;;;12.27;;
3563;SDS011;1796;52.388;13.096;2022-12-18T04:39:37;33.90;;;12.50;;
3563;SDS011;1796;52.388;13.096;2022-12-18T04:42:04;33.97;;;13.30;;
3563;SDS011;1796;52.388;13.096;2022-12-18T04:44:31;37.23;;;13.30;;
3563;SDS011;1796;52.388;13.096;2022-12-18T04:46:57;37.10;;;13.97;;
3563;SDS011;1796;52.388;13.096;2022-12-18T04:49:26;31.93;;;12.80;;
3563;SDS011;1796;52.388;13.096;2022-12-18T04:51:53;36.30;;;13.87;;
3563;SDS011;1796;52.388;13.096;2022-12-18T04:54:20;29.77;;;12.10;;
3563;SDS011;1796;52.388;13.096;2022-12-18T04:56:47;38.40;;;13.83;;
3563;SDS011;1796;52.388;13.096;2022-12-18T04:59:13;38.97;;;16.00;;
3563;SDS011;1796;52.388;13.096;2022-12-18T05:01:40;36.60;;;14.30;;
3563;SDS011;1796;52.388;13.096;2022-12-18T05:04:07;37.27;;;13.90;;
3563;SDS011;1796;52.388;13.096;2022-12-18T05:06:35;34.73;;;14.27;;
3563;SDS011;1796;52.388;13.096;2022-12-18T05:09:02;30.37;;;12.80;;
3563;SDS011;1796;52.388;13.096;2022-12-18T05:11:29;33.40;;;13.40;;
3563;SDS011;1796;52.388;13.096;2022-12-18T05:13:56;39.00;;;13.60;;
3563;SDS011;1796;52.388;13.096;2022-12-18T05:16:23;38.23;;;13.70;;
3563;SDS011;1796;52.388;13.096;2022-12-18T05:18:50;47.47;;;12.90;;
3563;SDS011;1796;52.388;13.096;2022-12-18T05:21:17;30.13;;;12.10;;
3563;SDS011;1796;52.388;13.096;2022-12-18T05:23:45;48.67;;;14.10;;
3563;SDS011;1796;52.388;13.096;2022-12-18T05:26:14;39.23;;;13.53;;
3563;SDS011;1796;52.388;13.096;2022-12-18T05:28:45;32.97;;;13.10;;
3563;SDS011;1796;52.388;13.096;2022-12-18T05:31:12;43.23;;;13.20;;
3563;SDS011;1796;52.388;13.096;2022-12-18T05:33:39;39.10;;;14.00;;
3563;SDS011;1796;52.388;13.096;2022-12-18T05:36:07;36.40;;;14.77;;
3563;SDS011;1796;52.388;13.096;2022-12-18T05:38:36;39.90;;;15.67;;
3563;SDS011;1796;52.388;13.096;2022-12-18T05:41:05;32.90;;;13.00;;
3563;SDS011;1796;52.388;13.096;2022-12-18T05:43:33;37.10;;;14.87;;
3563;SDS011;1796;52.388;13.096;2022-12-18T05:46:05;35.80;;;13.10;;
3563;SDS011;1796;52.388;13.096;2022-12-18T05:48:33;37.03;;;13.70;;
3563;SDS011;1796;52.388;13.096;2022-12-18T05:51:03;38.23;;;14.77;;
3563;SDS011;1796;52.388;13.096;2022-12-18T05:53:32;36.37;;;13.33;;
3563;SDS011;1796;52.388;13.096;2022-12-18T05:55:59;40.43;;;14.40;;
3563;SDS011;1796;52.388;13.096;2022-12-18T05:58:29;35.87;;;14.50;;
3563;SDS011;1796;52.388;13.096;2022-12-18T06:00:57;29.40;;;13.20;;
3563;SDS011;1796;52.388;13.096;2022-12-18T06:03:24;36.17;;;14.10;;
3563;SDS011;1796;52.388;13.096;2022-12-18T06:05:51;34.83;;;13.77;;
3563;SDS011;1796;52.388;13.096;2022-12-18T06:08:18;38.90;;;14.70;;
3563;SDS011;1796;52.388;13.096;2022-12-18T06:10:49;29.90;;;13.63;;
3563;SDS011;1796;52.388;13.096;2022-12-18T06:13:17;35.47;;;13.60;;
3563;SDS011;1796;52.388;13.096;2022-12-18T06:15:45;35.67;;;13.23;;
3563;SDS011;1796;52.388;13.096;2022-12-18T06:18:12;33.77;;;13.80;;
3563;SDS011;1796;52.388;13.096;2022-12-18T06:20:39;37.70;;;13.97;;
3563;SDS011;1796;52.388;13.096;2022-12-18T06:23:06;34.13;;;14.00;;
3563;SDS011;1796;52.388;13.096;2022-12-18T06:25:36;33.80;;;14.40;;
3563;SDS011;1796;52.388;13.096;2022-12-18T06:28:04;37.23;;;13.67;;
3563;SDS011;1796;52.388;13.096;2022-12-18T06:30:30;36.87;;;13.83;;
3563;SDS011;1796;52.388;13.096;2022-12-18T06:32:59;41.83;;;15.43;;
3563;SDS011;1796;52.388;13.096;2022-12-18T06:35:25;36.03;;;15.90;;
3563;SDS011;1796;52.388;13.096;2022-12-18T06:37:52;36.20;;;14.43;;
3563;SDS011;1796;52.388;13.096;2022-12-18T06:40:19;35.47;;;15.07;;
3563;SDS011;1796;52.388;13.096;2022-12-18T06:42:46;43.33;;;14.67;;
3563;SDS011;1796;52.388;13.096;2022-12-18T06:45:13;38.70;;;15.87;;
3563;SDS011;1796;52.388;13.096;2022-12-18T06:47:41;39.23;;;15.73;;
3563;SDS011;1796;52.388;13.096;2022-12-18T06:50:10;31.30;;;13.80;;
3563;SDS011;1796;52.388;13.096;2022-12-18T06:52:37;39.00;;;16.00;;
3563;SDS011;1796;52.388;13.096;2022-12-18T06:55:05;32.63;;;14.10;;
3563;SDS011;1796;52.388;13.096;2022-12-18T06:57:35;38.67;;;15.33;;
3563;SDS011;1796;52.388;13.096;2022-12-18T07:00:02;46.83;;;15.10;;
3563;SDS011;1796;52.388;13.096;2022-12-18T07:02:30;39.70;;;15.87;;
3563;SDS011;1796;52.388;13.096;2022-12-18T07:04:57;47.43;;;17.40;;
3563;SDS011;1796;52.388;13.096;2022-12-18T07:07:26;30.30;;;13.97;;
3563;SDS011;1796;52.388;13.096;2022-12-18T07:09:53;36.90;;;16.63;;
3563;SDS011;1796;52.388;13.096;2022-12-18T07:12:19;51.00;;;16.47;;
3563;SDS011;1796;52.388;13.096;2022-12-18T07:14:46;40.80;;;16.23;;
3563;SDS011;1796;52.388;13.096;2022-12-18T07:17:13;45.93;;;17.93;;
3563;SDS011;1796;52.388;13.096;2022-12-18T07:19:40;41.37;;;15.37;;
3563;SDS011;1796;52.388;13.096;2022-12-18T07:22:07;42.83;;;15.30;;
3563;SDS011;1796;52.388;13.096;2022-12-18T07:24:35;35.77;;;15.27;;
3563;SDS011;1796;52.388;13.096;2022-12-18T07:27:02;46.63;;;15.40;;
3563;SDS011;1796;52.388;13.096;2022-12-18T07:29:29;42.57;;;17.37;;
3563;SDS011;1796;52.388;13.096;2022-12-18T07:31:56;41.43;;;17.90;;
3563;SDS011;1796;52.388;13.096;2022-12-18T07:34:23;38.93;;;16.53;;
3563;SDS011;1796;52.388;13.096;2022-12-18T07:36:50;37.03;;;14.93;;
3563;SDS011;1796;52.388;13.096;2022-12-18T07:39:16;45.87;;;17.13;;
3563;SDS011;1796;52.388;13.096;2022-12-18T07:41:45;42.07;;;16.67;;
3563;SDS011;1796;52.388;13.096;2022-12-18T07:44:31;45.10;;;17.27;;
3563;SDS011;1796;52.388;13.096;2022-12-18T07:46:58;40.90;;;15.83;;
3563;SDS011;1796;52.388;13.096;2022-12-18T07:49:25;40.23;;;15.80;;
3563;SDS011;1796;52.388;13.096;2022-12-18T07:51:53;41.83;;;16.40;;
3563;SDS011;1796;52.388;13.096;2022-12-18T07:54:21;32.93;;;14.37;;
3563;SDS011;1796;52.388;13.096;2022-12-18T07:56:49;47.53;;;17.77;;
3563;SDS011;1796;52.388;13.096;2022-12-18T07:59:16;49.00;;;17.00;;
3563;SDS011;1796;52.388;13.096;2022-12-18T08:01:43;41.40;;;15.20;;
3563;SDS011;1796;52.388;13.096;2022-12-18T08:04:10;32.87;;;14.37;;
3563;SDS011;1796;52.388;13.096;2022-12-18T08:06:37;38.73;;;15.80;;
3563;SDS011;1796;52.388;13.096;2022-12-18T08:09:04;39.30;;;16.20;;
3563;SDS011;1796;52.388;13.096;2022-12-18T08:11:31;36.77;;;16.90;;
3563;SDS011;1796;52.388;13.096;2022-12-18T08:13:59;33.00;;;15.27;;
3563;SDS011;1796;52.388;13.096;2022-12-18T08:16:26;41.43;;;16.10;;
3563;SDS011;1796;52.388;13.096;2022-12-18T08:18:53;33.07;;;13.83;;
3563;SDS011;1796;52.388;13.096;2022-12-18T08:21:21;37.47;;;15.27;;
3563;SDS011;1796;52.388;13.096;2022-12-18T08:23:50;30.80;;;13.17;;
3563;SDS011;1796;52.388;13.096;2022-12-18T08:26:18;32.30;;;14.03;;
3563;SDS011;1796;52.388;13.096;2022-12-18T08:28:45;28.63;;;13.53;;
3563;SDS011;1796;52.388;13.096;2022-12-18T08:31:14;30.40;;;13.40;;
3563;SDS011;1796;52.388;13.096;2022-12-18T08:33:41;32.30;;;14.03;;
3563;SDS011;1796;52.388;13.096;2022-12-18T08:36:08;38.07;;;14.50;;
3563;SDS011;1796;52.388;13.096;2022-12-18T08:38:36;28.57;;;12.93;;
3563;SDS011;1796;52.388;13.096;2022-12-18T08:41:03;36.73;;;13.17;;
3563;SDS011;1796;52.388;13.096;2022-12-18T08:43:32;34.73;;;14.67;;
3563;SDS011;1796;52.388;13.096;2022-12-18T08:46:18;34.57;;;14.87;;
3563;SDS011;1796;52.388;13.096;2022-12-18T08:48:45;28.37;;;13.00;;
3563;SDS011;1796;52.388;13.096;2022-12-18T08:51:15;27.83;;;13.27;;
3563;SDS011;1796;52.388;13.096;2022-12-18T08:53:42;27.50;;;13.20;;
3563;SDS011;1796;52.388;13.096;2022-12-18T08:56:09;29.27;;;13.60;;
3563;SDS011;1796;52.388;13.096;2022-12-18T08:58:36;32.00;;;12.70;;
3563;SDS011;1796;52.388;13.096;2022-12-18T09:01:04;33.30;;;14.20;;
3563;SDS011;1796;52.388;13.096;2022-12-18T09:03:33;33.80;;;14.67;;
3563;SDS011;1796;52.388;13.096;2022-12-18T09:06:01;37.07;;;16.27;;
3563;SDS011;1796;52.388;13.096;2022-12-18T09:08:28;35.83;;;13.80;;
3563;SDS011;1796;52.388;13.096;2022-12-18T09:10:55;32.33;;;15.70;;
3563;SDS011;1796;52.388;13.096;2022-12-18T09:13:22;28.70;;;13.93;;
3563;SDS011;1796;52.388;13.096;2022-12-18T09:15:49;28.70;;;14.40;;
3563;SDS011;1796;52.388;13.096;2022-12-18T09:18:18;34.30;;;15.60;;
3563;SDS011;1796;52.388;13.096;2022-12-18T09:20:48;36.90;;;15.20;;
3563;SDS011;1796;52.388;13.096;2022-12-18T09:23:16;33.93;;;15.40;;
3563;SDS011;1796;52.388;13.096;2022-12-18T09:25:43;35.70;;;15.57;;
3563;SDS011;1796;52.388;13.096;2022-12-18T09:28:11;39.97;;;16.30;;
3563;SDS011;1796;52.388;13.096;2022-12-18T09:30:39;49.70;;;17.10;;
3563;SDS011;1796;52.388;13.096;2022-12-18T09:33:09;42.73;;;16.37;;
3563;SDS011;1796;52.388;13.096;2022-12-18T09:35:36;49.90;;;17.07;;
3563;SDS011;1796;52.388;13.096;2022-12-18T09:38:05;39.03;;;16.70;;
3563;SDS011;1796;52.388;13.096;2022-12-18T09:40:33;40.67;;;16.80;;
3563;SDS011;1796;52.388;13.096;2022-12-18T09:43:03;37.40;;;16.50;;
3563;SDS011;1796;52.388;13.096;2022-12-18T09:45:31;43.50;;;17.60;;
3563;SDS011;1796;52.388;13.096;2022-12-18T09:48:05;37.30;;;17.10;;
3563;SDS011;1796;52.388;13.096;2022-12-18T09:50:37;38.67;;;16.20;;
3563;SDS011;1796;52.388;13.096;2022-12-18T09:53:09;43.80;;;16.70;;
3563;SDS011;1796;52.388;13.096;2022-12-18T09:55:40;46.27;;;17.20;;
3563;SDS011;1796;52.388;13.096;2022-12-18T09:58:13;44.00;;;17.93;;
3563;SDS011;1796;52.388;13.096;2022-12-18T10:00:43;43.60;;;18.30;;
3563;SDS011;1796;52.388;13.096;2022-12-18T10:03:10;43.93;;;16.93;;
3563;SDS011;1796;52.388;13.096;2022-12-18T10:05:39;43.67;;;15.87;;
3563;SDS011;1796;52.388;13.096;2022-12-18T10:08:15;43.07;;;15.67;;
3563;SDS011;1796;52.388;13.096;2022-12-18T10:10:48;41.50;;;17.80;;
3563;SDS011;1796;52.388;13.096;2022-12-18T10:13:23;39.20;;;16.77;;
3563;SDS011;1796;52.388;13.096;2022-12-18T10:16:00;52.33;;;19.53;;
3563;SDS011;1796;52.388;13.096;2022-12-18T10:18:42;41.00;;;17.10;;
3563;SDS011;1796;52.388;13.096;2022-12-18T10:21:28;50.17;;;19.30;;
3563;SDS011;1796;52.388;13.096;2022-12-18T10:24:02;40.47;;;17.00;;
3563;SDS011;1796;52.388;13.096;2022-12-18T10:26:41;35.47;;;16.70;;
3563;SDS011;1796;52.388;13.096;2022-12-18T10:29:09;35.60;;;17.13;;
3563;SDS011;1796;52.388;13.096;2022-12-18T10:31:39;42.40;;;15.63;;
3563;SDS011;1796;52.388;13.096;2022-12-18T10:34:08;38.77;;;16.80;;
3563;SDS011;1796;52.388;13.096;2022-12-18T10:36:36;35.60;;;16.10;;
3563;SDS011;1796;52.388;13.096;2022-12-18T10:39:15;34.83;;;16.50;;
3563;SDS011;1796;52.388;13.096;2022-12-18T10:41:42;34.70;;;15.97;;
3563;SDS011;1796;52.388;13.096;2022-12-18T10:44:11;30.97;;;14.37;;
3563;SDS011;1796;52.388;13.096;2022-12-18T10:46:43;32.17;;;14.70;;
3563;SDS011;1796;52.388;13.096;2022-12-18T10:49:24;38.13;;;15.43;;
3563;SDS011;1796;52.388;13.096;2022-12-18T10:52:03;42.07;;;16.80;;
3563;SDS011;1796;52.388;13.096;2022-12-18T10:54:45;31.47;;;14.57;;
3563;SDS011;1796;52.388;13.096;2022-12-18T10:57:14;38.60;;;16.33;;
3563;SDS011;1796;52.388;13.096;2022-12-18T10:59:49;36.13;;;14.90;;
3563;SDS011;1796;52.388;13.096;2022-12-18T11:02:25;31.73;;;14.20;;
3563;SDS011;1796;52.388;13.096;2022-12-18T11:04:54;28.43;;;13.33;;
3563;SDS011;1796;52.388;13.096;2022-12-18T11:07:20;31.30;;;14.57;;
3563;SDS011;1796;52.388;13.096;2022-12-18T11:10:00;36.27;;;15.73;;
3563;SDS011;1796;52.388;13.096;2022-12-18T11:12:27;38.40;;;15.83;;
3563;SDS011;1796;52.388;13.096;2022-12-18T11:14:55;32.87;;;14.97;;
3563;SDS011;1796;52.388;13.096;2022-12-18T11:17:25;30.43;;;13.73;;
3563;SDS011;1796;52.388;13.096;2022-12-18T11:19:56;30.50;;;14.67;;
3563;SDS011;1796;52.388;13.096;2022-12-18T11:22:25;35.00;;;15.30;;
3563;SDS011;1796;52.388;13.096;2022-12-18T11:24:55;36.53;;;16.30;;
3563;SDS011;1796;52.388;13.096;2022-12-18T11:27:24;33.43;;;13.77;;
3563;SDS011;1796;52.388;13.096;2022-12-18T11:29:52;30.20;;;14.67;;
3563;SDS011;1796;52.388;13.096;2022-12-18T11:32:34;28.70;;;13.87;;
3563;SDS011;1796;52.388;13.096;2022-12-18T11:35:04;28.83;;;12.77;;
3563;SDS011;1796;52.388;13.096;2022-12-18T11:37:41;26.40;;;13.10;;
3563;SDS011;1796;52.388;13.096;2022-12-18T11:40:15;35.17;;;13.60;;
3563;SDS011;1796;52.388;13.096;2022-12-18T11:42:47;30.50;;;13.07;;
3563;SDS011;1796;52.388;13.096;2022-12-18T11:45:22;21.67;;;10.93;;
3563;SDS011;1796;52.388;13.096;2022-12-18T11:47:54;28.60;;;12.60;;
3563;SDS011;1796;52.388;13.096;2022-12-18T11:50:25;29.97;;;13.33;;
3563;SDS011;1796;52.388;13.096;2022-12-18T11:52:55;27.07;;;12.50;;
3563;SDS011;1796;52.388;13.096;2022-12-18T11:55:26;26.03;;;12.60;;
3563;SDS011;1796;52.388;13.096;2022-12-18T11:57:59;26.57;;;11.90;;
3563;SDS011;1796;52.388;13.096;2022-12-18T12:00:31;25.87;;;12.67;;
3563;SDS011;1796;52.388;13.096;2022-12-18T12:03:35;24.20;;;11.77;;
3563;SDS011;1796;52.388;13.096;2022-12-18T12:06:14;24.83;;;12.00;;
3563;SDS011;1796;52.388;13.096;2022-12-18T12:08:52;24.33;;;12.60;;
3563;SDS011;1796;52.388;13.096;2022-12-18T12:11:30;27.50;;;13.30;;
3563;SDS011;1796;52.388;13.096;2022-12-18T12:14:09;27.53;;;13.27;;
3563;SDS011;1796;52.388;13.096;2022-12-18T12:16:47;22.07;;;11.63;;
3563;SDS011;1796;52.388;13.096;2022-12-18T12:19:24;23.30;;;11.30;;
3563;SDS011;1796;52.388;13.096;2022-12-18T12:22:03;22.17;;;11.80;;
3563;SDS011;1796;52.388;13.096;2022-12-18T12:24:39;25.37;;;13.47;;
3563;SDS011;1796;52.388;13.096;2022-12-18T12:27:19;24.53;;;11.43;;
3563;SDS011;1796;52.388;13.096;2022-12-18T12:29:58;25.30;;;12.10;;
3563;SDS011;1796;52.388;13.096;2022-12-18T12:32:34;23.07;;;12.40;;
3563;SDS011;1796;52.388;13.096;2022-12-18T12:35:19;27.27;;;13.47;;
3563;SDS011;1796;52.388;13.096;2022-12-18T12:37:56;29.00;;;14.47;;
3563;SDS011;1796;52.388;13.096;2022-12-18T12:40:33;33.87;;;16.30;;
3563;SDS011;1796;52.388;13.096;2022-12-18T12:43:05;26.97;;;13.47;;
3563;SDS011;1796;52.388;13.096;2022-12-18T12:45:46;24.97;;;13.47;;
3563;SDS011;1796;52.388;13.096;2022-12-18T12:48:16;26.17;;;13.60;;
3563;SDS011;1796;52.388;13.096;2022-12-18T12:50:49;26.97;;;12.30;;
3563;SDS011;1796;52.388;13.096;2022-12-18T12:53:20;24.10;;;12.83;;
3563;SDS011;1796;52.388;13.096;2022-12-18T12:55:51;23.20;;;12.60;;
3563;SDS011;1796;52.388;13.096;2022-12-18T12:58:23;28.47;;;14.60;;
3563;SDS011;1796;52.388;13.096;2022-12-18T13:01:01;20.80;;;12.07;;
3563;SDS011;1796;52.388;13.096;2022-12-18T13:03:44;27.37;;;13.43;;
3563;SDS011;1796;52.388;13.096;2022-12-18T13:06:19;29.40;;;13.40;;
3563;SDS011;1796;52.388;13.096;2022-12-18T13:08:55;24.50;;;13.47;;
3563;SDS011;1796;52.388;13.096;2022-12-18T13:11:31;33.67;;;13.63;;
3563;SDS011;1796;52.388;13.096;2022-12-18T13:14:22;25.73;;;13.30;;
3563;SDS011;1796;52.388;13.096;2022-12-18T13:16:50;34.93;;;14.30;;
3563;SDS011;1796;52.388;13.096;2022-12-18T13:19:24;34.43;;;13.80;;
3563;SDS011;1796;52.388;13.096;2022-12-18T13:21:53;33.43;;;14.63;;
3563;SDS011;1796;52.388;13.096;2022-12-18T13:24:23;34.33;;;15.77;;
3563;SDS011;1796;52.388;13.096;2022-12-18T13:26:53;29.53;;;15.20;;
3563;SDS011;1796;52.388;13.096;2022-12-18T13:32:21;36.10;;;13.40;;
3563;SDS011;1796;52.388;13.096;2022-12-18T13:37:53;19.53;;;10.80;;
3563;SDS011;1796;52.388;13.096;2022-12-18T13:43:23;24.33;;;11.60;;
3563;SDS011;1796;52.388;13.096;2022-12-18T13:46:01;27.70;;;13.27;;
3563;SDS011;1796;52.388;13.096;2022-12-18T13:48:31;37.97;;;15.67;;
3563;SDS011;1796;52.388;13.096;2022-12-18T13:51:02;31.80;;;15.53;;
3563;SDS011;1796;52.388;13.096;2022-12-18T13:53:33;35.67;;;16.47;;
3563;SDS011;1796;52.388;13.096;2022-12-18T13:56:04;25.50;;;14.00;;
3563;SDS011;1796;52.388;13.096;2022-12-18T13:58:31;37.13;;;15.50;;
3563;SDS011;1796;52.388;13.096;2022-12-18T14:00:59;29.80;;;15.13;;
3563;SDS011;1796;52.388;13.096;2022-12-18T14:03:29;30.87;;;15.27;;
3563;SDS011;1796;52.388;13.096;2022-12-18T14:06:00;33.73;;;13.50;;
3563;SDS011;1796;52.388;13.096;2022-12-18T14:08:32;27.80;;;12.90;;
3563;SDS011;1796;52.388;13.096;2022-12-18T14:11:03;26.37;;;14.53;;
3563;SDS011;1796;52.388;13.096;2022-12-18T14:13:33;30.60;;;13.23;;
3563;SDS011;1796;52.388;13.096;2022-12-18T14:16:03;23.57;;;13.00;;
3563;SDS011;1796;52.388;13.096;2022-12-18T14:18:36;30.57;;;14.47;;
3563;SDS011;1796;52.388;13.096;2022-12-18T14:21:14;23.03;;;13.70;;
3563;SDS011;1796;52.388;13.096;2022-12-18T14:23:44;23.07;;;12.30;;
3563;SDS011;1796;52.388;13.096;2022-12-18T14:26:19;23.83;;;12.70;;
3563;SDS011;1796;52.388;13.096;2022-12-18T14:28:48;23.47;;;13.13;;
3563;SDS011;1796;52.388;13.096;2022-12-18T14:31:18;19.67;;;11.27;;
3563;SDS011;1796;52.388;13.096;2022-12-18T14:33:47;24.77;;;13.20;;
3563;SDS011;1796;52.388;13.096;2022-12-18T14:36:15;23.37;;;13.00;;
3563;SDS011;1796;52.388;13.096;2022-12-18T14:38:43;27.20;;;12.87;;
3563;SDS011;1796;52.388;13.096;2022-12-18T14:41:16;17.83;;;10.10;;
3563;SDS011;1796;52.388;13.096;2022-12-18T14:43:45;21.33;;;10.00;;
3563;SDS011;1796;52.388;13.096;2022-12-18T14:46:25;22.50;;;9.73;;
3563;SDS011;1796;52.388;13.096;2022-12-18T14:48:56;18.10;;;11.67;;
3563;SDS011;1796;52.388;13.096;2022-12-18T14:51:24;18.50;;;10.73;;
3563;SDS011;1796;52.388;13.096;2022-12-18T14:53:53;18.50;;;10.13;;
3563;SDS011;1796;52.388;13.096;2022-12-18T14:56:22;17.30;;;9.73;;
3563;SDS011;1796;52.388;13.096;2022-12-18T14:58:51;20.93;;;11.50;;
3563;SDS011;1796;52.388;13.096;2022-12-18T15:01:23;22.13;;;11.47;;
3563;SDS011;1796;52.388;13.096;2022-12-18T15:03:53;29.83;;;12.40;;